sensor_id;sensor_type;location;lat;lon;timestamp;P1;durP1;ratioP1;P2;durP2;ratioP2
23119;SDS011;11729;50.836;4.330;2023-04-06T00:00:56;27.52;;;16.52;;
23119;SDS011;11729;50.836;4.330;2023-04-06T00:03:22;25.50;;;16.70;;
23119;SDS011;11729;50.836;4.330;2023-04-06T00:05:49;23.50;;;16.98;;
23119;SDS011;11729;50.836;4.330;2023-04-06T00:08:15;25.55;;;16.35;;
23119;SDS011;11729;50.836;4.330;2023-04-06T00:10:41;24.50;;;16.63;;
23119;SDS011;11729;50.836;4.330;2023-04-06T00:13:07;28.35;;;17.63;;
23119;SDS011;11729;50.836;4.330;2023-04-06T00:15:33;29.60;;;18.00;;
23119;SDS011;11729;50.836;4.330;2023-04-06T00:17:59;25.33;;;17.08;;
23119;SDS011;11729;50.836;4.330;2023-04-06T00:20:25;25.60;;;17.20;;
23119;SDS011;11729;50.836;4.330;2023-04-06T00:22:52;22.88;;;16.60;;
23119;SDS011;11729;50.836;4.330;2023-04-06T00:25:19;25.35;;;16.85;;
23119;SDS011;11729;50.836;4.330;2023-04-06T00:27:44;25.20;;;17.27;;
23119;SDS011;11729;50.836;4.330;2023-04-06T00:30:10;26.63;;;17.70;;
23119;SDS011;11729;50.836;4.330;2023-04-06T00:32:35;22.48;;;17.60;;
23119;SDS011;11729;50.836;4.330;2023-04-06T00:35:02;23.80;;;17.02;;
23119;SDS011;11729;50.836;4.330;2023-04-06T00:37:28;25.63;;;17.52;;
23119;SDS011;11729;50.836;4.330;2023-04-06T00:39:54;25.80;;;17.63;;
23119;SDS011;11729;50.836;4.330;2023-04-06T00:42:20;26.23;;;17.88;;
23119;SDS011;11729;50.836;4.330;2023-04-06T00:44:57;25.33;;;16.67;;
23119;SDS011;11729;50.836;4.330;2023-04-06T00:47:24;29.13;;;18.33;;
23119;SDS011;11729;50.836;4.330;2023-04-06T00:49:51;23.75;;;16.92;;
23119;SDS011;11729;50.836;4.330;2023-04-06T00:52:18;24.27;;;17.38;;
23119;SDS011;11729;50.836;4.330;2023-04-06T00:54:44;25.98;;;17.83;;
23119;SDS011;11729;50.836;4.330;2023-04-06T00:57:13;28.45;;;17.80;;
23119;SDS011;11729;50.836;4.330;2023-04-06T00:59:39;26.40;;;17.70;;
23119;SDS011;11729;50.836;4.330;2023-04-06T01:02:05;27.65;;;17.15;;
23119;SDS011;11729;50.836;4.330;2023-04-06T01:04:32;23.35;;;17.15;;
23119;SDS011;11729;50.836;4.330;2023-04-06T01:06:58;25.45;;;17.42;;
23119;SDS011;11729;50.836;4.330;2023-04-06T01:09:27;25.73;;;17.27;;
23119;SDS011;11729;50.836;4.330;2023-04-06T01:11:54;25.40;;;18.00;;
23119;SDS011;11729;50.836;4.330;2023-04-06T01:14:20;26.08;;;17.13;;
23119;SDS011;11729;50.836;4.330;2023-04-06T01:16:46;25.10;;;18.25;;
23119;SDS011;11729;50.836;4.330;2023-04-06T01:19:12;25.23;;;17.45;;
23119;SDS011;11729;50.836;4.330;2023-04-06T01:21:40;23.27;;;17.63;;
23119;SDS011;11729;50.836;4.330;2023-04-06T01:24:06;28.50;;;18.83;;
23119;SDS011;11729;50.836;4.330;2023-04-06T01:26:33;24.77;;;17.63;;
23119;SDS011;11729;50.836;4.330;2023-04-06T01:29:00;27.02;;;17.30;;
23119;SDS011;11729;50.836;4.330;2023-04-06T01:31:26;24.17;;;16.90;;
23119;SDS011;11729;50.836;4.330;2023-04-06T01:33:52;24.98;;;18.08;;
23119;SDS011;11729;50.836;4.330;2023-04-06T01:36:18;27.50;;;18.27;;
23119;SDS011;11729;50.836;4.330;2023-04-06T01:38:45;23.30;;;17.20;;
23119;SDS011;11729;50.836;4.330;2023-04-06T01:41:10;22.13;;;17.52;;
23119;SDS011;11729;50.836;4.330;2023-04-06T01:43:36;26.92;;;17.45;;
23119;SDS011;11729;50.836;4.330;2023-04-06T01:46:02;22.65;;;17.90;;
23119;SDS011;11729;50.836;4.330;2023-04-06T01:48:28;26.05;;;18.38;;
23119;SDS011;11729;50.836;4.330;2023-04-06T01:50:54;32.83;;;17.95;;
23119;SDS011;11729;50.836;4.330;2023-04-06T01:53:20;25.05;;;18.08;;
23119;SDS011;11729;50.836;4.330;2023-04-06T01:55:45;26.13;;;17.80;;
23119;SDS011;11729;50.836;4.330;2023-04-06T01:58:11;25.27;;;18.10;;
23119;SDS011;11729;50.836;4.330;2023-04-06T02:00:38;22.05;;;17.73;;
23119;SDS011;11729;50.836;4.330;2023-04-06T02:03:04;22.85;;;16.85;;
23119;SDS011;11729;50.836;4.330;2023-04-06T02:05:31;22.45;;;17.30;;
23119;SDS011;11729;50.836;4.330;2023-04-06T02:08:02;26.25;;;18.23;;
23119;SDS011;11729;50.836;4.330;2023-04-06T02:10:31;24.75;;;17.55;;
23119;SDS011;11729;50.836;4.330;2023-04-06T02:12:57;27.67;;;17.17;;
23119;SDS011;11729;50.836;4.330;2023-04-06T02:15:23;26.33;;;18.23;;
23119;SDS011;11729;50.836;4.330;2023-04-06T02:17:49;28.42;;;18.30;;
23119;SDS011;11729;50.836;4.330;2023-04-06T02:20:15;23.75;;;17.45;;
23119;SDS011;11729;50.836;4.330;2023-04-06T02:22:41;27.38;;;18.13;;
23119;SDS011;11729;50.836;4.330;2023-04-06T02:25:07;27.67;;;18.10;;
23119;SDS011;11729;50.836;4.330;2023-04-06T02:27:32;24.35;;;17.60;;
23119;SDS011;11729;50.836;4.330;2023-04-06T02:29:58;23.70;;;17.15;;
23119;SDS011;11729;50.836;4.330;2023-04-06T02:32:24;22.17;;;17.02;;
23119;SDS011;11729;50.836;4.330;2023-04-06T02:34:49;23.90;;;17.30;;
23119;SDS011;11729;50.836;4.330;2023-04-06T02:37:16;23.55;;;17.98;;
23119;SDS011;11729;50.836;4.330;2023-04-06T02:39:42;25.23;;;16.63;;
23119;SDS011;11729;50.836;4.330;2023-04-06T02:42:07;25.70;;;17.30;;
23119;SDS011;11729;50.836;4.330;2023-04-06T02:44:33;27.45;;;16.90;;
23119;SDS011;11729;50.836;4.330;2023-04-06T02:46:59;24.40;;;18.63;;
23119;SDS011;11729;50.836;4.330;2023-04-06T02:49:26;25.23;;;18.25;;
23119;SDS011;11729;50.836;4.330;2023-04-06T02:51:53;23.30;;;18.35;;
23119;SDS011;11729;50.836;4.330;2023-04-06T02:54:24;22.13;;;17.25;;
23119;SDS011;11729;50.836;4.330;2023-04-06T02:56:50;23.25;;;17.48;;
23119;SDS011;11729;50.836;4.330;2023-04-06T02:59:15;23.42;;;18.15;;
23119;SDS011;11729;50.836;4.330;2023-04-06T03:01:48;25.17;;;17.77;;
23119;SDS011;11729;50.836;4.330;2023-04-06T03:04:16;23.77;;;17.23;;
23119;SDS011;11729;50.836;4.330;2023-04-06T03:06:42;23.23;;;16.67;;
23119;SDS011;11729;50.836;4.330;2023-04-06T03:09:07;31.65;;;17.55;;
23119;SDS011;11729;50.836;4.330;2023-04-06T03:11:34;24.10;;;17.90;;
23119;SDS011;11729;50.836;4.330;2023-04-06T03:14:00;26.92;;;17.83;;
23119;SDS011;11729;50.836;4.330;2023-04-06T03:16:25;22.75;;;17.15;;
23119;SDS011;11729;50.836;4.330;2023-04-06T03:18:51;27.42;;;18.05;;
23119;SDS011;11729;50.836;4.330;2023-04-06T03:21:18;25.60;;;16.70;;
23119;SDS011;11729;50.836;4.330;2023-04-06T03:23:44;19.98;;;16.67;;
23119;SDS011;11729;50.836;4.330;2023-04-06T03:26:10;25.35;;;18.52;;
23119;SDS011;11729;50.836;4.330;2023-04-06T03:28:36;26.13;;;18.25;;
23119;SDS011;11729;50.836;4.330;2023-04-06T03:31:01;22.70;;;17.38;;
23119;SDS011;11729;50.836;4.330;2023-04-06T03:33:27;22.25;;;17.00;;
23119;SDS011;11729;50.836;4.330;2023-04-06T03:35:54;23.60;;;17.45;;
23119;SDS011;11729;50.836;4.330;2023-04-06T03:38:20;25.92;;;18.13;;
23119;SDS011;11729;50.836;4.330;2023-04-06T03:40:46;23.13;;;17.88;;
23119;SDS011;11729;50.836;4.330;2023-04-06T03:43:12;23.42;;;17.73;;
23119;SDS011;11729;50.836;4.330;2023-04-06T03:45:38;25.10;;;19.52;;
23119;SDS011;11729;50.836;4.330;2023-04-06T03:48:04;25.35;;;18.33;;
23119;SDS011;11729;50.836;4.330;2023-04-06T03:50:30;26.13;;;17.02;;
23119;SDS011;11729;50.836;4.330;2023-04-06T03:52:56;23.40;;;17.35;;
23119;SDS011;11729;50.836;4.330;2023-04-06T03:55:22;23.73;;;17.75;;
23119;SDS011;11729;50.836;4.330;2023-04-06T03:57:47;23.55;;;17.27;;
23119;SDS011;11729;50.836;4.330;2023-04-06T04:00:13;23.17;;;18.02;;
23119;SDS011;11729;50.836;4.330;2023-04-06T04:02:39;24.63;;;17.08;;
23119;SDS011;11729;50.836;4.330;2023-04-06T04:05:05;23.10;;;17.13;;
23119;SDS011;11729;50.836;4.330;2023-04-06T04:07:31;22.20;;;17.88;;
23119;SDS011;11729;50.836;4.330;2023-04-06T04:09:56;26.08;;;18.48;;
23119;SDS011;11729;50.836;4.330;2023-04-06T04:12:22;23.02;;;18.30;;
23119;SDS011;11729;50.836;4.330;2023-04-06T04:14:48;23.42;;;17.23;;
23119;SDS011;11729;50.836;4.330;2023-04-06T04:17:13;27.80;;;17.88;;
23119;SDS011;11729;50.836;4.330;2023-04-06T04:19:39;31.30;;;18.15;;
23119;SDS011;11729;50.836;4.330;2023-04-06T04:22:05;26.83;;;18.08;;
23119;SDS011;11729;50.836;4.330;2023-04-06T04:24:31;29.05;;;18.25;;
23119;SDS011;11729;50.836;4.330;2023-04-06T04:26:57;27.63;;;18.83;;
23119;SDS011;11729;50.836;4.330;2023-04-06T04:29:23;26.38;;;17.70;;
23119;SDS011;11729;50.836;4.330;2023-04-06T04:31:49;27.42;;;18.08;;
23119;SDS011;11729;50.836;4.330;2023-04-06T04:34:15;31.58;;;18.38;;
23119;SDS011;11729;50.836;4.330;2023-04-06T04:36:41;32.88;;;18.58;;
23119;SDS011;11729;50.836;4.330;2023-04-06T04:41:36;29.33;;;17.60;;
23119;SDS011;11729;50.836;4.330;2023-04-06T04:44:01;31.13;;;18.92;;
23119;SDS011;11729;50.836;4.330;2023-04-06T04:46:27;26.95;;;17.65;;
23119;SDS011;11729;50.836;4.330;2023-04-06T04:48:53;28.23;;;18.95;;
23119;SDS011;11729;50.836;4.330;2023-04-06T04:51:18;28.35;;;18.50;;
23119;SDS011;11729;50.836;4.330;2023-04-06T04:53:45;24.05;;;18.13;;
23119;SDS011;11729;50.836;4.330;2023-04-06T04:56:16;26.33;;;18.60;;
23119;SDS011;11729;50.836;4.330;2023-04-06T04:58:42;26.02;;;18.88;;
23119;SDS011;11729;50.836;4.330;2023-04-06T05:01:08;33.22;;;19.90;;
23119;SDS011;11729;50.836;4.330;2023-04-06T05:03:51;31.23;;;19.45;;
23119;SDS011;11729;50.836;4.330;2023-04-06T05:06:17;33.42;;;20.27;;
23119;SDS011;11729;50.836;4.330;2023-04-06T05:08:44;32.53;;;20.13;;
23119;SDS011;11729;50.836;4.330;2023-04-06T05:11:09;30.20;;;19.38;;
23119;SDS011;11729;50.836;4.330;2023-04-06T05:13:36;28.50;;;20.25;;
23119;SDS011;11729;50.836;4.330;2023-04-06T05:16:02;33.88;;;20.45;;
23119;SDS011;11729;50.836;4.330;2023-04-06T05:18:29;31.98;;;19.77;;
23119;SDS011;11729;50.836;4.330;2023-04-06T05:20:55;33.25;;;20.75;;
23119;SDS011;11729;50.836;4.330;2023-04-06T05:23:20;30.58;;;20.48;;
23119;SDS011;11729;50.836;4.330;2023-04-06T05:25:46;31.73;;;20.50;;
23119;SDS011;11729;50.836;4.330;2023-04-06T05:28:12;26.02;;;19.75;;
23119;SDS011;11729;50.836;4.330;2023-04-06T05:30:39;33.25;;;19.98;;
23119;SDS011;11729;50.836;4.330;2023-04-06T05:33:05;32.85;;;19.77;;
23119;SDS011;11729;50.836;4.330;2023-04-06T05:35:30;28.83;;;19.98;;
23119;SDS011;11729;50.836;4.330;2023-04-06T05:37:56;32.83;;;21.25;;
23119;SDS011;11729;50.836;4.330;2023-04-06T05:40:21;40.90;;;21.85;;
23119;SDS011;11729;50.836;4.330;2023-04-06T05:42:47;29.73;;;20.48;;
23119;SDS011;11729;50.836;4.330;2023-04-06T05:45:14;34.30;;;21.50;;
23119;SDS011;11729;50.836;4.330;2023-04-06T05:47:42;30.55;;;20.63;;
23119;SDS011;11729;50.836;4.330;2023-04-06T05:50:09;28.90;;;21.67;;
23119;SDS011;11729;50.836;4.330;2023-04-06T05:52:35;32.63;;;20.63;;
23119;SDS011;11729;50.836;4.330;2023-04-06T05:55:01;32.05;;;22.40;;
23119;SDS011;11729;50.836;4.330;2023-04-06T05:57:28;31.17;;;21.38;;
23119;SDS011;11729;50.836;4.330;2023-04-06T05:59:55;32.55;;;21.05;;
23119;SDS011;11729;50.836;4.330;2023-04-06T06:02:21;30.77;;;22.38;;
23119;SDS011;11729;50.836;4.330;2023-04-06T06:04:47;29.77;;;21.33;;
23119;SDS011;11729;50.836;4.330;2023-04-06T06:07:14;36.65;;;21.95;;
23119;SDS011;11729;50.836;4.330;2023-04-06T06:09:40;33.47;;;22.55;;
23119;SDS011;11729;50.836;4.330;2023-04-06T06:12:05;34.97;;;24.83;;
23119;SDS011;11729;50.836;4.330;2023-04-06T06:14:31;30.58;;;22.40;;
23119;SDS011;11729;50.836;4.330;2023-04-06T06:16:57;37.95;;;22.88;;
23119;SDS011;11729;50.836;4.330;2023-04-06T06:19:22;35.15;;;21.90;;
23119;SDS011;11729;50.836;4.330;2023-04-06T06:21:48;29.92;;;21.17;;
23119;SDS011;11729;50.836;4.330;2023-04-06T06:24:14;32.28;;;22.17;;
23119;SDS011;11729;50.836;4.330;2023-04-06T06:26:39;31.75;;;23.05;;
23119;SDS011;11729;50.836;4.330;2023-04-06T06:29:06;37.85;;;23.88;;
23119;SDS011;11729;50.836;4.330;2023-04-06T06:31:33;32.88;;;23.70;;
23119;SDS011;11729;50.836;4.330;2023-04-06T06:33:59;36.95;;;22.85;;
23119;SDS011;11729;50.836;4.330;2023-04-06T06:36:25;41.55;;;24.02;;
23119;SDS011;11729;50.836;4.330;2023-04-06T06:38:51;32.08;;;23.75;;
23119;SDS011;11729;50.836;4.330;2023-04-06T06:41:16;42.72;;;23.95;;
23119;SDS011;11729;50.836;4.330;2023-04-06T06:43:43;35.85;;;24.85;;
23119;SDS011;11729;50.836;4.330;2023-04-06T06:46:09;39.10;;;24.60;;
23119;SDS011;11729;50.836;4.330;2023-04-06T06:48:36;40.65;;;25.77;;
23119;SDS011;11729;50.836;4.330;2023-04-06T06:51:02;39.47;;;26.13;;
23119;SDS011;11729;50.836;4.330;2023-04-06T06:53:27;39.35;;;24.60;;
23119;SDS011;11729;50.836;4.330;2023-04-06T06:55:53;35.17;;;24.02;;
23119;SDS011;11729;50.836;4.330;2023-04-06T06:58:19;42.97;;;24.83;;
23119;SDS011;11729;50.836;4.330;2023-04-06T07:00:45;39.70;;;25.38;;
23119;SDS011;11729;50.836;4.330;2023-04-06T07:03:11;36.00;;;24.30;;
23119;SDS011;11729;50.836;4.330;2023-04-06T07:05:37;47.05;;;24.70;;
23119;SDS011;11729;50.836;4.330;2023-04-06T07:08:03;39.40;;;24.08;;
23119;SDS011;11729;50.836;4.330;2023-04-06T07:10:30;37.10;;;23.85;;
23119;SDS011;11729;50.836;4.330;2023-04-06T07:12:55;35.55;;;25.92;;
23119;SDS011;11729;50.836;4.330;2023-04-06T07:15:21;57.92;;;35.03;;
23119;SDS011;11729;50.836;4.330;2023-04-06T07:17:47;39.30;;;26.05;;
23119;SDS011;11729;50.836;4.330;2023-04-06T07:20:12;32.25;;;23.00;;
23119;SDS011;11729;50.836;4.330;2023-04-06T07:22:42;38.30;;;23.40;;
23119;SDS011;11729;50.836;4.330;2023-04-06T07:25:12;34.90;;;23.17;;
23119;SDS011;11729;50.836;4.330;2023-04-06T07:27:38;36.15;;;22.50;;
23119;SDS011;11729;50.836;4.330;2023-04-06T07:30:03;29.40;;;19.92;;
23119;SDS011;11729;50.836;4.330;2023-04-06T07:32:32;29.38;;;20.10;;
23119;SDS011;11729;50.836;4.330;2023-04-06T07:35:00;27.67;;;20.77;;
23119;SDS011;11729;50.836;4.330;2023-04-06T07:37:26;26.38;;;19.90;;
23119;SDS011;11729;50.836;4.330;2023-04-06T07:39:52;31.35;;;20.08;;
23119;SDS011;11729;50.836;4.330;2023-04-06T07:42:18;27.55;;;19.45;;
23119;SDS011;11729;50.836;4.330;2023-04-06T07:44:43;29.63;;;18.45;;
23119;SDS011;11729;50.836;4.330;2023-04-06T07:47:12;29.05;;;18.77;;
23119;SDS011;11729;50.836;4.330;2023-04-06T07:49:38;32.13;;;17.00;;
23119;SDS011;11729;50.836;4.330;2023-04-06T07:52:03;27.15;;;17.33;;
23119;SDS011;11729;50.836;4.330;2023-04-06T07:54:29;25.95;;;17.15;;
23119;SDS011;11729;50.836;4.330;2023-04-06T07:56:54;21.45;;;16.77;;
23119;SDS011;11729;50.836;4.330;2023-04-06T07:59:20;26.98;;;18.40;;
23119;SDS011;11729;50.836;4.330;2023-04-06T08:01:46;36.75;;;19.58;;
23119;SDS011;11729;50.836;4.330;2023-04-06T08:04:11;33.08;;;19.20;;
23119;SDS011;11729;50.836;4.330;2023-04-06T08:06:37;30.00;;;18.42;;
23119;SDS011;11729;50.836;4.330;2023-04-06T08:09:02;24.25;;;17.23;;
23119;SDS011;11729;50.836;4.330;2023-04-06T08:11:28;23.48;;;17.40;;
23119;SDS011;11729;50.836;4.330;2023-04-06T08:13:54;28.27;;;17.13;;
23119;SDS011;11729;50.836;4.330;2023-04-06T08:16:24;27.17;;;17.95;;
23119;SDS011;11729;50.836;4.330;2023-04-06T08:18:50;25.10;;;16.90;;
23119;SDS011;11729;50.836;4.330;2023-04-06T08:21:17;24.73;;;16.90;;
23119;SDS011;11729;50.836;4.330;2023-04-06T08:23:43;28.30;;;17.77;;
23119;SDS011;11729;50.836;4.330;2023-04-06T08:26:08;23.48;;;15.55;;
23119;SDS011;11729;50.836;4.330;2023-04-06T08:28:34;20.35;;;15.35;;
23119;SDS011;11729;50.836;4.330;2023-04-06T08:31:06;23.95;;;13.82;;
23119;SDS011;11729;50.836;4.330;2023-04-06T08:33:32;5.50;;;5.25;;
23119;SDS011;11729;50.836;4.330;2023-04-06T08:36:11;4.55;;;4.35;;
23119;SDS011;11729;50.836;4.330;2023-04-06T08:38:38;4.50;;;4.30;;
23119;SDS011;11729;50.836;4.330;2023-04-06T08:41:11;4.68;;;4.47;;
23119;SDS011;11729;50.836;4.330;2023-04-06T08:43:41;4.40;;;4.20;;
23119;SDS011;11729;50.836;4.330;2023-04-06T08:46:26;4.75;;;4.55;;
23119;SDS011;11729;50.836;4.330;2023-04-06T08:48:56;4.30;;;4.10;;
23119;SDS011;11729;50.836;4.330;2023-04-06T08:51:23;4.50;;;4.30;;
23119;SDS011;11729;50.836;4.330;2023-04-06T08:53:53;4.72;;;4.53;;
23119;SDS011;11729;50.836;4.330;2023-04-06T08:56:21;4.43;;;4.22;;
23119;SDS011;11729;50.836;4.330;2023-04-06T08:58:47;4.57;;;4.38;;
23119;SDS011;11729;50.836;4.330;2023-04-06T09:01:13;5.05;;;4.85;;
23119;SDS011;11729;50.836;4.330;2023-04-06T09:03:42;5.75;;;5.45;;
23119;SDS011;11729;50.836;4.330;2023-04-06T09:06:08;4.40;;;4.20;;
23119;SDS011;11729;50.836;4.330;2023-04-06T09:08:35;4.43;;;4.22;;
23119;SDS011;11729;50.836;4.330;2023-04-06T09:11:03;5.85;;;5.55;;
23119;SDS011;11729;50.836;4.330;2023-04-06T09:13:30;4.60;;;4.40;;
23119;SDS011;11729;50.836;4.330;2023-04-06T09:16:01;5.20;;;5.00;;
23119;SDS011;11729;50.836;4.330;2023-04-06T09:18:30;5.05;;;4.85;;
23119;SDS011;11729;50.836;4.330;2023-04-06T09:20:57;4.70;;;4.50;;
23119;SDS011;11729;50.836;4.330;2023-04-06T09:23:27;4.25;;;4.05;;
23119;SDS011;11729;50.836;4.330;2023-04-06T09:26:04;4.47;;;4.28;;
23119;SDS011;11729;50.836;4.330;2023-04-06T09:28:43;4.75;;;4.55;;
23119;SDS011;11729;50.836;4.330;2023-04-06T09:31:12;4.30;;;4.10;;
23119;SDS011;11729;50.836;4.330;2023-04-06T09:33:44;4.30;;;4.10;;
23119;SDS011;11729;50.836;4.330;2023-04-06T09:36:11;4.70;;;4.50;;
23119;SDS011;11729;50.836;4.330;2023-04-06T09:38:39;4.50;;;4.30;;
23119;SDS011;11729;50.836;4.330;2023-04-06T09:41:20;4.65;;;4.45;;
23119;SDS011;11729;50.836;4.330;2023-04-06T09:46:31;5.22;;;5.03;;
23119;SDS011;11729;50.836;4.330;2023-04-06T09:48:59;4.50;;;4.30;;
23119;SDS011;11729;50.836;4.330;2023-04-06T09:51:27;5.00;;;4.80;;
23119;SDS011;11729;50.836;4.330;2023-04-06T09:53:56;4.57;;;4.38;;
23119;SDS011;11729;50.836;4.330;2023-04-06T09:56:27;4.82;;;4.63;;
23119;SDS011;11729;50.836;4.330;2023-04-06T09:58:57;4.60;;;4.40;;
23119;SDS011;11729;50.836;4.330;2023-04-06T10:01:28;4.50;;;4.30;;
23119;SDS011;11729;50.836;4.330;2023-04-06T10:03:56;4.60;;;4.40;;
23119;SDS011;11729;50.836;4.330;2023-04-06T10:06:46;4.75;;;4.55;;
23119;SDS011;11729;50.836;4.330;2023-04-06T10:09:17;4.63;;;4.43;;
23119;SDS011;11729;50.836;4.330;2023-04-06T10:11:46;4.40;;;4.20;;
23119;SDS011;11729;50.836;4.330;2023-04-06T10:14:15;4.60;;;4.40;;
23119;SDS011;11729;50.836;4.330;2023-04-06T10:16:41;4.85;;;4.55;;
23119;SDS011;11729;50.836;4.330;2023-04-06T10:19:13;4.40;;;4.20;;
23119;SDS011;11729;50.836;4.330;2023-04-06T10:21:42;5.22;;;5.03;;
23119;SDS011;11729;50.836;4.330;2023-04-06T10:24:11;4.40;;;4.20;;
23119;SDS011;11729;50.836;4.330;2023-04-06T10:26:38;4.40;;;4.20;;
23119;SDS011;11729;50.836;4.330;2023-04-06T10:29:04;4.68;;;4.47;;
23119;SDS011;11729;50.836;4.330;2023-04-06T10:31:29;4.68;;;4.47;;
23119;SDS011;11729;50.836;4.330;2023-04-06T10:33:56;4.72;;;4.53;;
23119;SDS011;11729;50.836;4.330;2023-04-06T10:36:32;4.40;;;4.20;;
23119;SDS011;11729;50.836;4.330;2023-04-06T10:38:59;4.63;;;4.43;;
23119;SDS011;11729;50.836;4.330;2023-04-06T10:43:59;4.32;;;4.13;;
23119;SDS011;11729;50.836;4.330;2023-04-06T10:46:26;4.30;;;4.10;;
23119;SDS011;11729;50.836;4.330;2023-04-06T10:48:53;4.22;;;4.03;;
23119;SDS011;11729;50.836;4.330;2023-04-06T10:51:19;4.20;;;4.00;;
23119;SDS011;11729;50.836;4.330;2023-04-06T10:53:51;4.50;;;4.30;;
23119;SDS011;11729;50.836;4.330;2023-04-06T10:56:21;4.63;;;4.43;;
23119;SDS011;11729;50.836;4.330;2023-04-06T10:58:49;5.38;;;5.05;;
23119;SDS011;11729;50.836;4.330;2023-04-06T11:01:17;4.40;;;4.20;;
23119;SDS011;11729;50.836;4.330;2023-04-06T11:06:10;5.03;;;4.82;;
23119;SDS011;11729;50.836;4.330;2023-04-06T11:08:35;4.90;;;4.70;;
23119;SDS011;11729;50.836;4.330;2023-04-06T11:11:04;5.05;;;4.85;;
23119;SDS011;11729;50.836;4.330;2023-04-06T11:13:43;4.70;;;4.50;;
23119;SDS011;11729;50.836;4.330;2023-04-06T11:16:52;4.50;;;4.30;;
23119;SDS011;11729;50.836;4.330;2023-04-06T11:19:00;4.22;;;4.03;;
23119;SDS011;11729;50.836;4.330;2023-04-06T11:21:36;4.85;;;4.65;;
23119;SDS011;11729;50.836;4.330;2023-04-06T11:26:42;4.40;;;4.20;;
23119;SDS011;11729;50.836;4.330;2023-04-06T11:29:10;4.38;;;4.18;;
23119;SDS011;11729;50.836;4.330;2023-04-06T11:31:42;4.65;;;4.45;;
23119;SDS011;11729;50.836;4.330;2023-04-06T11:34:29;4.10;;;3.90;;
23119;SDS011;11729;50.836;4.330;2023-04-06T11:36:58;4.30;;;4.10;;
23119;SDS011;11729;50.836;4.330;2023-04-06T11:39:25;5.15;;;4.85;;
23119;SDS011;11729;50.836;4.330;2023-04-06T11:42:01;4.50;;;4.30;;
23119;SDS011;11729;50.836;4.330;2023-04-06T11:47:00;4.45;;;4.25;;
23119;SDS011;11729;50.836;4.330;2023-04-06T11:49:30;4.85;;;4.65;;
23119;SDS011;11729;50.836;4.330;2023-04-06T11:51:57;4.30;;;4.10;;
23119;SDS011;11729;50.836;4.330;2023-04-06T11:56:55;4.78;;;4.57;;
23119;SDS011;11729;50.836;4.330;2023-04-06T11:59:21;5.05;;;4.85;;
23119;SDS011;11729;50.836;4.330;2023-04-06T12:01:47;4.45;;;4.25;;
23119;SDS011;11729;50.836;4.330;2023-04-06T12:04:14;4.70;;;4.50;;
23119;SDS011;11729;50.836;4.330;2023-04-06T12:06:40;4.40;;;4.20;;
23119;SDS011;11729;50.836;4.330;2023-04-06T12:09:05;6.05;;;5.75;;
23119;SDS011;11729;50.836;4.330;2023-04-06T12:11:31;4.30;;;4.10;;
23119;SDS011;11729;50.836;4.330;2023-04-06T12:13:57;4.55;;;4.35;;
23119;SDS011;11729;50.836;4.330;2023-04-06T12:16:24;4.30;;;4.10;;
23119;SDS011;11729;50.836;4.330;2023-04-06T12:18:50;4.35;;;4.15;;
23119;SDS011;11729;50.836;4.330;2023-04-06T12:21:16;4.80;;;4.60;;
23119;SDS011;11729;50.836;4.330;2023-04-06T12:23:42;4.63;;;4.43;;
23119;SDS011;11729;50.836;4.330;2023-04-06T12:26:07;4.30;;;4.10;;
23119;SDS011;11729;50.836;4.330;2023-04-06T12:28:33;4.30;;;4.10;;
23119;SDS011;11729;50.836;4.330;2023-04-06T12:30:59;4.40;;;4.20;;
23119;SDS011;11729;50.836;4.330;2023-04-06T12:33:25;4.60;;;4.40;;
23119;SDS011;11729;50.836;4.330;2023-04-06T12:35:50;4.40;;;4.20;;
23119;SDS011;11729;50.836;4.330;2023-04-06T12:38:16;4.50;;;4.30;;
23119;SDS011;11729;50.836;4.330;2023-04-06T12:40:42;4.60;;;4.40;;
23119;SDS011;11729;50.836;4.330;2023-04-06T12:43:07;4.50;;;4.30;;
23119;SDS011;11729;50.836;4.330;2023-04-06T12:45:34;4.90;;;4.70;;
23119;SDS011;11729;50.836;4.330;2023-04-06T12:48:00;8.38;;;5.00;;
23119;SDS011;11729;50.836;4.330;2023-04-06T12:50:26;4.28;;;4.07;;
23119;SDS011;11729;50.836;4.330;2023-04-06T12:52:52;4.70;;;4.50;;
23119;SDS011;11729;50.836;4.330;2023-04-06T12:55:18;4.40;;;4.20;;
23119;SDS011;11729;50.836;4.330;2023-04-06T12:57:44;4.30;;;4.10;;
23119;SDS011;11729;50.836;4.330;2023-04-06T13:00:10;4.82;;;4.63;;
23119;SDS011;11729;50.836;4.330;2023-04-06T13:02:36;4.47;;;4.28;;
23119;SDS011;11729;50.836;4.330;2023-04-06T13:05:02;7.75;;;5.45;;
23119;SDS011;11729;50.836;4.330;2023-04-06T13:07:27;4.50;;;4.30;;
23119;SDS011;11729;50.836;4.330;2023-04-06T13:09:54;4.30;;;4.10;;
23119;SDS011;11729;50.836;4.330;2023-04-06T13:12:20;4.40;;;4.20;;
23119;SDS011;11729;50.836;4.330;2023-04-06T13:14:45;4.30;;;4.10;;
23119;SDS011;11729;50.836;4.330;2023-04-06T13:17:15;4.45;;;4.25;;
23119;SDS011;11729;50.836;4.330;2023-04-06T13:19:42;4.30;;;4.10;;
23119;SDS011;11729;50.836;4.330;2023-04-06T13:22:08;4.47;;;4.28;;
23119;SDS011;11729;50.836;4.330;2023-04-06T13:24:34;4.40;;;4.20;;
23119;SDS011;11729;50.836;4.330;2023-04-06T13:27:00;4.30;;;4.10;;
23119;SDS011;11729;50.836;4.330;2023-04-06T13:29:26;4.70;;;4.50;;
23119;SDS011;11729;50.836;4.330;2023-04-06T13:31:52;4.43;;;4.22;;
23119;SDS011;11729;50.836;4.330;2023-04-06T13:34:18;4.70;;;4.50;;
23119;SDS011;11729;50.836;4.330;2023-04-06T13:36:43;46.72;;;6.15;;
23119;SDS011;11729;50.836;4.330;2023-04-06T13:39:09;4.95;;;4.65;;
23119;SDS011;11729;50.836;4.330;2023-04-06T13:41:35;4.60;;;4.40;;
23119;SDS011;11729;50.836;4.330;2023-04-06T13:44:01;5.47;;;5.18;;
23119;SDS011;11729;50.836;4.330;2023-04-06T13:46:31;4.45;;;4.25;;
23119;SDS011;11729;50.836;4.330;2023-04-06T13:48:57;4.97;;;4.78;;
23119;SDS011;11729;50.836;4.330;2023-04-06T13:51:22;4.50;;;4.30;;
23119;SDS011;11729;50.836;4.330;2023-04-06T13:53:51;4.75;;;4.55;;
23119;SDS011;11729;50.836;4.330;2023-04-06T13:56:17;4.43;;;4.22;;
23119;SDS011;11729;50.836;4.330;2023-04-06T13:58:43;4.50;;;4.30;;
23119;SDS011;11729;50.836;4.330;2023-04-06T14:01:08;4.47;;;4.28;;
23119;SDS011;11729;50.836;4.330;2023-04-06T14:03:34;4.50;;;4.30;;
23119;SDS011;11729;50.836;4.330;2023-04-06T14:06:00;4.80;;;4.60;;
23119;SDS011;11729;50.836;4.330;2023-04-06T14:08:34;4.53;;;4.32;;
23119;SDS011;11729;50.836;4.330;2023-04-06T14:10:59;4.72;;;4.53;;
23119;SDS011;11729;50.836;4.330;2023-04-06T14:13:25;4.60;;;4.40;;
23119;SDS011;11729;50.836;4.330;2023-04-06T14:15:54;4.60;;;4.40;;
23119;SDS011;11729;50.836;4.330;2023-04-06T14:18:20;4.38;;;4.18;;
23119;SDS011;11729;50.836;4.330;2023-04-06T14:20:57;4.40;;;4.20;;
23119;SDS011;11729;50.836;4.330;2023-04-06T14:23:23;4.40;;;4.20;;
23119;SDS011;11729;50.836;4.330;2023-04-06T14:26:04;4.43;;;4.22;;
23119;SDS011;11729;50.836;4.330;2023-04-06T14:28:34;5.28;;;5.03;;
23119;SDS011;11729;50.836;4.330;2023-04-06T14:31:09;4.30;;;4.10;;
23119;SDS011;11729;50.836;4.330;2023-04-06T14:33:40;4.18;;;3.97;;
23119;SDS011;11729;50.836;4.330;2023-04-06T14:36:06;4.38;;;4.18;;
23119;SDS011;11729;50.836;4.330;2023-04-06T14:38:41;4.82;;;4.63;;
23119;SDS011;11729;50.836;4.330;2023-04-06T14:41:08;4.20;;;4.00;;
23119;SDS011;11729;50.836;4.330;2023-04-06T14:43:39;4.25;;;4.05;;
23119;SDS011;11729;50.836;4.330;2023-04-06T14:46:06;4.63;;;4.43;;
23119;SDS011;11729;50.836;4.330;2023-04-06T14:48:34;4.47;;;4.28;;
23119;SDS011;11729;50.836;4.330;2023-04-06T14:51:00;4.30;;;4.10;;